aviador You're here:

CYZP Decoded Metar

SANDSPIT in BC, CANADA
Report Time2018-01-18 11:00:00
UTC Time2018-01-18 11:41:06
Flight Rules mvfr MVFR
Wind130° at 29 Gusting to 37 kt
W.Decomp.*RWY 12: 28.4 kt HW 6 kt LCW
W.Rank130° ranks 5
Current wind is above 130° avg. (15.1)
Visibility6437 m
Phenomena:Mist
Clouds:Broken 014 Hf
Overcast 019 Hf
Ceiling1,400 ft
Temp08°C (ISA -7)
Dew Point08°C (100% RH)
AAT-2.9°C
QNH980 hPa
Density Alt466 ft
Elevation20 ft
Report Wrong Elevation
Raw Report
CYZP 181100Z AUTO 13029G37KT 4SM BR BKN014 OVC019 08/08 A2893 RMK
SLP799 DENSITY ALT 300FT=

Extra information for CYZP:More info

Metar Taf Metar & Taf Last 4 Metars F.Rules Stats Wind Profile Meteogram Temp Stats Airport Information Weather charts Add Link Nearby VenuesMetar ALERT Operation Metar Decoded Social comments